Time;durP1;ratioP1;P1;durP2;ratioP2;P2;SDS_P1;SDS_P2;PMS_P1;PMS_P2;Temp;Humidity;BMP_temperature;BMP_pressure;BME280_temperature;BME280_humidity;BME280_pressure;Samples;Min_cycle;Max_cycle;Signal;HPM_P1;HPM_P2
2022/06/11 00:47:01;;;;;;;;;;;;;;;;;;;;;
2022/06/11 00:57:19;;;;;;;;;;;;;;;;;;;;;
2022/06/11 01:28:59;;;;;;;;;;;;;;;;;;;;;
2022/06/11 02:05:14;;;;;;;;;;;;;;;;;;;;;
2022/06/11 02:45:17;;;;;;;;;;;;;;;;;;;;;
2022/06/11 02:56:11;;;;;;;;;;;;;;;;;;;;;
2022/06/11 06:24:55;;;;;;;8.48;3.10;;;17.60;96.30;;;;;;5111279;27;20115;-87
2022/06/11 06:27:26;;;;;;;8.70;3.17;;;17.60;96.20;;;;;;5035614;28;20115;-87
2022/06/11 06:30:01;;;;;;;8.70;2.70;;;17.60;96.20;;;;;;5053266;28;20021;-88
2022/06/11 06:32:28;;;;;;;8.73;2.63;;;17.70;96.20;;;;;;5036712;28;20037;-87
2022/06/11 06:35:12;;;;;;;;;;;;;;;;;;;;;
2022/06/11 06:37:41;;;;;;;10.10;2.83;;;17.70;96.20;;;;;;5054371;28;20028;-84
2022/06/11 06:40:07;;;;;;;11.50;3.00;;;17.80;96.20;;;;;;5052780;28;20024;-84
2022/06/11 06:42:33;;;;;;;6.78;2.40;;;17.80;96.10;;;;;;5052485;28;20047;-85
2022/06/11 06:45:02;;;;;;;8.38;2.92;;;17.90;96.10;;;;;;5052097;28;20021;-86
2022/06/11 06:47:35;;;;;;;13.85;3.28;;;17.90;96.10;;;;;;5090758;28;20055;-86
2022/06/11 06:50:08;;;;;;;9.15;3.03;;;18.00;96.00;;;;;;5072459;28;20031;-86
2022/06/11 06:52:34;;;;;;;9.02;3.00;;;18.00;96.10;;;;;;5073175;28;20047;-86
2022/06/11 06:55:02;;;;;;;10.30;2.97;;;18.10;96.10;;;;;;5072807;28;20460;-85
2022/06/11 06:57:31;;;;;;;9.85;2.85;;;18.10;96.10;;;;;;5070600;28;20036;-84
2022/06/11 06:59:56;;;;;;;11.60;3.28;;;18.10;96.30;;;;;;5055896;28;20532;-85
2022/06/11 07:02:39;;;;;;;9.80;2.90;;;18.10;96.70;;;;;;5072659;28;20123;-87
2022/06/11 07:05:10;;;;;;;12.02;2.45;;;18.10;96.90;;;;;;5042626;28;20094;-87
2022/06/11 07:07:39;;;;;;;9.82;3.13;;;18.00;97.20;;;;;;5028125;28;20081;-87
2022/06/11 07:10:14;;;;;;;10.38;2.92;;;18.00;97.30;;;;;;5052393;28;20086;-87
2022/06/11 07:13:05;;;;;;;9.52;2.80;;;18.00;97.60;;;;;;5052760;28;20025;-88
2022/06/11 07:15:36;;;;;;;8.45;2.80;;;18.00;97.70;;;;;;5036624;28;20029;-86
2022/06/11 07:18:19;;;;;;;8.38;2.97;;;18.00;97.80;;;;;;5043239;28;20036;-87
2022/06/11 07:21:08;;;;;;;;;;;;;;;;;;;;;
2022/06/11 07:24:05;;;;;;;9.27;3.35;;;18.10;98.20;;;;;;5069421;28;20063;-88
2022/06/11 07:26:54;;;;;;;7.25;2.65;;;18.20;98.30;;;;;;5086206;28;20040;-87
2022/06/11 07:29:30;;;;;;;13.10;3.47;;;18.20;98.30;;;;;;5068468;28;20021;-89
2022/06/11 07:32:20;;;;;;;;;;;;;;;;;;;;;
2022/06/11 07:35:01;;;;;;;;;;;;;;;;;;;;;
2022/06/11 07:37:52;;;;;;;10.13;2.88;;;18.40;98.40;;;;;;5058231;28;20017;-87
2022/06/11 07:47:53;;;;;;;;;;;;;;;;;;;;;
2022/06/11 07:49:58;;;;;;;11.00;3.30;;;18.50;98.30;;;;;;5057039;28;20376;-88
2022/06/11 07:52:44;;;;;;;;;;;18.50;98.30;;;;;;5040676;28;20032;-87
2022/06/11 07:55:43;;;;;;;11.10;2.88;;;18.60;98.20;;;;;;5062128;28;19923;-90
2022/06/11 07:58:30;;;;;;;;;;;;;;;;;;;;;
2022/06/11 08:04:28;;;;;;;;;;;;;;;;;;;;;
2022/06/11 10:01:14;;;;;;;10.82;2.95;;;20.90;94.10;;;;;;4922775;29;20052;-89
2022/06/11 10:04:04;;;;;;;11.85;2.92;;;20.90;93.90;;;;;;4934847;28;20060;-87
2022/06/11 10:06:52;;;;;;;9.77;2.72;;;20.90;93.60;;;;;;4941056;28;20063;-89
2022/06/11 10:09:40;;;;;;;10.68;3.88;;;21.00;93.70;;;;;;4940094;28;20017;-87
2022/06/11 10:12:24;;;;;;;10.95;2.78;;;21.10;93.70;;;;;;4926592;29;20123;-89
2022/06/11 10:15:18;;;;;;;10.55;2.83;;;21.10;93.50;;;;;;4926885;29;20044;-88
2022/06/11 10:18:00;;;;;;;7.78;2.63;;;21.10;93.40;;;;;;4922243;29;20024;-86
2022/06/11 10:20:38;;;;;;;7.55;2.65;;;21.10;93.20;;;;;;4916953;29;20021;-89
2022/06/11 10:23:31;;;;;;;8.82;2.35;;;21.10;93.00;;;;;;4916621;29;20036;-88
2022/06/11 10:26:05;;;;;;;11.00;2.97;;;21.20;93.10;;;;;;4905718;29;20481;-88
2022/06/11 10:28:43;;;;;;;7.97;2.65;;;21.20;93.00;;;;;;4916338;29;20048;-88
2022/06/11 10:31:19;;;;;;;7.47;2.42;;;21.20;93.00;;;;;;4916263;29;20035;-88
2022/06/11 10:34:02;;;;;;;6.63;2.20;;;21.30;92.90;;;;;;4916335;29;20040;-89
2022/06/11 10:36:37;;;;;;;10.13;2.90;;;21.30;92.80;;;;;;4915956;29;20035;-90
2022/06/11 10:39:45;;;;;;;6.97;2.55;;;21.40;92.80;;;;;;4917548;29;20028;-91
2022/06/11 10:42:29;;;;;;;;;;;;;;;;;;;;;
2022/06/11 10:44:59;;;;;;;5.97;2.22;;;21.60;92.70;;;;;;4917217;29;20032;-88
2022/06/11 10:48:22;;;;;;;7.68;2.67;;;21.60;92.60;;;;;;4898504;29;20036;-89
2022/06/11 10:51:01;;;;;;;10.93;2.78;;;21.60;92.30;;;;;;4902700;29;20048;-89
2022/06/11 10:57:27;;;;;;;;;;;;;;;;;;;;;
2022/06/11 11:00:39;;;;;;;7.82;3.35;;;21.70;92.10;;;;;;4917167;29;20056;-89
2022/06/11 11:03:17;;;;;;;10.00;3.00;;;21.80;92.10;;;;;;4899757;29;20043;-88
2022/06/11 11:10:05;;;;;;;;;;;;;;;;;;;;;
2022/06/11 11:20:42;;;;;;;;;;;;;;;;;;;;;
2022/06/11 11:28:22;;;;;;;;;;;;;;;;;;;;;
2022/06/11 11:31:06;;;;;;;;;;;;;;;;;;;;;
2022/06/11 11:45:31;;;;;;;;;;;;;;;;;;;;;
2022/06/11 11:48:59;;;;;;;;;;;;;;;;;;;;;
2022/06/11 11:52:02;;;;;;;8.13;2.28;;;22.40;90.50;;;;;;4899893;29;20059;-92
2022/06/11 11:55:37;;;;;;;;;;;;;;;;;;;;;
2022/06/11 12:02:53;;;;;;;6.47;2.08;;;22.70;90.10;;;;;;4826026;29;20070;-91
2022/06/11 12:06:12;;;;;;;;;;;;;;;;;;;;;
2022/06/11 12:09:12;;;;;;;;;;;;;;;;;;;;;
2022/06/11 12:12:49;;;;;;;;;;;;;;;;;;;;;
2022/06/11 12:16:00;;;;;;;;;;;;;;;;;;;;;
2022/06/11 12:36:10;;;;;;;;;;;;;;;;;;;;;
2022/06/11 12:39:11;;;;;;;6.60;2.40;;;23.00;88.20;;;;;;4881440;29;20044;-88
2022/06/11 12:42:11;;;;;;;8.15;2.55;;;23.10;88.20;;;;;;4918596;29;20111;-89
2022/06/11 12:44:59;;;;;;;5.82;2.17;;;23.20;88.10;;;;;;4919256;29;20076;-89
2022/06/11 12:47:53;;;;;;;7.13;2.38;;;23.30;87.90;;;;;;4918365;29;20068;-89
2022/06/11 12:50:48;;;;;;;;;;;;;;;;;;;;;
2022/06/11 12:57:02;;;;;;;7.30;2.88;;;23.50;86.80;;;;;;4918112;29;20028;-88
2022/06/11 13:00:12;;;;;;;;;;;;;;;;;;;;;
2022/06/11 13:03:05;;;;;;;9.27;2.50;;;23.60;86.50;;;;;;4918729;29;20036;-85
2022/06/11 13:06:06;;;;;;;;;;;;;;;;;;;;;
2022/06/11 13:10:02;;;;;;;;;;;;;;;;;;;;;
2022/06/11 13:12:41;;;;;;;7.95;2.33;;;23.70;85.90;;;;;;4917855;29;20514;-88
2022/06/11 13:15:57;;;;;;;;;;;;;;;;;;;;;
2022/06/11 13:22:19;;;;;;;6.63;2.53;;;23.80;85.50;;;;;;4913548;29;20432;-88
2022/06/11 13:25:33;;;;;;;5.15;1.92;;;23.80;85.50;;;;;;4918114;29;20044;-89
2022/06/11 13:28:46;;;;;;;;;;;;;;;;;;;;;
2022/06/11 13:31:57;;;;;;;6.47;1.95;;;23.90;85.40;;;;;;4917242;29;20024;-87
2022/06/11 13:38:18;;;;;;;6.82;2.22;;;23.80;85.30;;;;;;4885908;29;20040;-87
2022/06/11 13:41:15;;;;;;;;;;;;;;;;;;;;;
